createdAt,value
2022-09-07T00:00:51.328Z,80.87
2022-09-07T00:03:24.346Z,80.93
2022-09-07T00:05:58.107Z,80.60
2022-09-07T00:08:32.410Z,80.62
2022-09-07T00:11:07.236Z,80.64
2022-09-07T00:13:42.061Z,80.20
2022-09-07T00:16:21.145Z,80.10
2022-09-07T00:18:55.434Z,79.64
2022-09-07T00:21:29.079Z,79.55
2022-09-07T00:24:03.971Z,79.29
2022-09-07T00:26:36.926Z,79.10
2022-09-07T00:29:11.591Z,79.17
2022-09-07T00:31:46.761Z,78.90
2022-09-07T00:34:20.019Z,78.90
2022-09-07T00:36:52.954Z,78.90
2022-09-07T00:39:27.477Z,78.90
2022-09-07T00:42:00.365Z,79.01
2022-09-07T00:45:10.500Z,79.14
2022-09-07T00:47:49.906Z,79.53
2022-09-07T00:50:28.399Z,79.83
2022-09-07T00:53:06.318Z,80.18
2022-09-07T00:55:43.955Z,80.57
2022-09-07T00:58:18.490Z,80.72
2022-09-07T01:00:52.597Z,80.98
2022-09-07T01:03:28.666Z,80.98
2022-09-07T01:06:07.216Z,80.85
2022-09-07T01:08:41.642Z,80.72
2022-09-07T01:11:16.068Z,80.70
2022-09-07T01:13:50.774Z,80.89
2022-09-07T01:16:38.277Z,80.53
2022-09-07T01:19:36.571Z,80.28
2022-09-07T01:22:34.343Z,79.97
2022-09-07T01:25:11.937Z,80.03
2022-09-07T01:28:04.393Z,79.63
2022-09-07T01:30:39.789Z,79.46
2022-09-07T01:33:27.229Z,79.32
2022-09-07T01:36:10.344Z,79.05
2022-09-07T01:38:47.693Z,78.79
2022-09-07T01:41:26.374Z,78.78
2022-09-07T01:44:09.141Z,78.43
2022-09-07T01:46:46.832Z,78.47
2022-09-07T01:49:24.619Z,78.48
2022-09-07T01:52:02.795Z,78.34
2022-09-07T01:54:42.005Z,78.21
2022-09-07T01:57:20.444Z,78.44
2022-09-07T02:00:03.975Z,78.33
2022-09-07T02:02:41.247Z,78.31
2022-09-07T02:05:19.595Z,78.58
2022-09-07T02:07:55.254Z,78.68
2022-09-07T02:10:34.938Z,78.75
2022-09-07T02:13:12.768Z,78.82
2022-09-07T02:15:53.688Z,79.16
2022-09-07T02:18:29.708Z,79.70
2022-09-07T02:21:05.202Z,79.86
2022-09-07T02:23:42.447Z,79.80
2022-09-07T02:26:20.772Z,79.62
2022-09-07T02:28:53.721Z,79.32
2022-09-07T02:31:29.233Z,79.22
2022-09-07T02:34:02.633Z,79.24
2022-09-07T02:36:42.102Z,79.01
2022-09-07T02:39:15.136Z,78.92
2022-09-07T02:41:48.567Z,78.93
2022-09-07T02:44:24.317Z,78.83
2022-09-07T02:47:10.572Z,79.03
2022-09-07T02:49:57.246Z,78.80
2022-09-07T02:52:37.463Z,79.35
2022-09-07T02:55:22.217Z,79.57
2022-09-07T02:58:09.746Z,79.55
2022-09-07T03:00:51.951Z,79.94
2022-09-07T03:03:34.886Z,80.05
2022-09-07T03:06:15.345Z,80.26
2022-09-07T03:08:51.901Z,80.50
2022-09-07T03:11:25.477Z,80.73
2022-09-07T03:14:13.312Z,80.93
2022-09-07T03:16:47.958Z,81.24
2022-09-07T03:19:22.448Z,81.27
2022-09-07T03:21:55.357Z,81.07
2022-09-07T03:24:28.382Z,80.93
2022-09-07T03:27:02.185Z,80.86
2022-09-07T03:29:37.304Z,81.05
2022-09-07T03:32:12.040Z,81.27
2022-09-07T03:34:48.473Z,81.21
2022-09-07T03:37:21.446Z,81.41
2022-09-07T03:39:54.637Z,81.25
2022-09-07T03:42:27.519Z,81.23
2022-09-07T03:45:00.863Z,81.35
2022-09-07T03:47:35.045Z,81.59
2022-09-07T03:50:13.001Z,81.83
2022-09-07T03:52:46.221Z,81.87
2022-09-07T03:55:19.102Z,81.78
2022-09-07T03:57:52.077Z,81.55
2022-09-07T04:00:25.397Z,81.47
2022-09-07T04:02:58.259Z,81.56
2022-09-07T04:05:33.813Z,81.44
2022-09-07T04:08:06.942Z,81.57
2022-09-07T04:10:39.903Z,81.82
2022-09-07T04:13:12.683Z,81.74
2022-09-07T04:15:45.625Z,81.62
2022-09-07T04:18:18.549Z,81.69
2022-09-07T04:20:52.852Z,81.43
2022-09-07T04:23:25.879Z,81.38
2022-09-07T04:25:58.801Z,81.11
2022-09-07T04:28:31.793Z,81.19
2022-09-07T04:31:04.832Z,81.02
2022-09-07T04:33:37.887Z,80.75
2022-09-07T04:36:12.394Z,80.44
2022-09-07T04:38:45.885Z,80.35
2022-09-07T04:41:20.105Z,80.17
2022-09-07T04:43:55.330Z,79.99
2022-09-07T04:46:30.859Z,79.63
2022-09-07T04:49:07.159Z,79.41
2022-09-07T04:51:44.541Z,79.26
2022-09-07T04:54:17.438Z,79.43
2022-09-07T04:56:50.354Z,79.22
2022-09-07T04:59:23.173Z,79.37
2022-09-07T05:01:56.211Z,79.76
2022-09-07T05:04:29.123Z,79.72
2022-09-07T05:07:03.720Z,79.83
2022-09-07T05:09:36.691Z,79.99
2022-09-07T05:12:09.831Z,79.90
2022-09-07T05:14:42.898Z,79.78
2022-09-07T05:17:16.209Z,79.58
2022-09-07T05:19:49.377Z,79.58
2022-09-07T05:22:25.174Z,79.37
2022-09-07T05:24:58.244Z,79.31
2022-09-07T05:27:31.235Z,79.18
2022-09-07T05:30:05.108Z,79.18
2022-09-07T05:32:38.812Z,79.35
2022-09-07T05:35:12.313Z,78.98
2022-09-07T05:37:51.212Z,79.18
2022-09-07T05:40:24.304Z,79.32
2022-09-07T05:42:57.120Z,79.37
2022-09-07T05:45:30.030Z,79.48
2022-09-07T05:48:04.347Z,79.47
2022-09-07T05:50:37.773Z,79.72
2022-09-07T05:53:12.027Z,79.67
2022-09-07T05:55:45.049Z,79.83
2022-09-07T05:58:18.483Z,79.82
2022-09-07T06:00:51.342Z,80.06
2022-09-07T06:03:24.999Z,80.56
2022-09-07T06:06:03.093Z,80.88
2022-09-07T06:08:39.585Z,81.32
2022-09-07T06:11:14.260Z,81.43
2022-09-07T06:13:49.977Z,81.87
2022-09-07T06:16:22.899Z,82.08
2022-09-07T06:18:56.084Z,81.86
2022-09-07T06:21:29.007Z,81.84
2022-09-07T06:24:03.806Z,81.44
2022-09-07T06:26:36.692Z,81.47
2022-09-07T06:29:10.750Z,81.52
2022-09-07T06:34:36.437Z,82.66
2022-09-07T06:37:09.328Z,82.62
2022-09-07T06:39:43.665Z,82.77
2022-09-07T06:42:16.835Z,82.56
2022-09-07T06:44:49.691Z,81.42
2022-09-07T06:47:22.623Z,81.52
2022-09-07T06:49:55.563Z,81.03
2022-09-07T06:52:28.438Z,80.86
2022-09-07T06:55:03.022Z,79.91
2022-09-07T06:57:35.860Z,79.46
2022-09-07T07:00:10.017Z,78.69
2022-09-07T07:02:42.840Z,77.92
2022-09-07T07:05:15.878Z,78.08
2022-09-07T07:07:48.675Z,76.90
2022-09-07T07:10:25.028Z,75.93
2022-09-07T07:12:58.594Z,75.69
2022-09-07T07:15:32.042Z,75.63
2022-09-07T07:18:20.223Z,75.19
2022-09-07T07:20:54.184Z,74.50
2022-09-07T07:23:27.090Z,73.30
2022-09-07T07:26:05.011Z,73.10
2022-09-07T07:31:35.655Z,73.56
2022-09-07T07:34:08.522Z,73.71
2022-09-07T07:36:41.690Z,72.32
2022-09-07T07:42:09.066Z,71.33
2022-09-07T07:44:41.876Z,71.38
2022-09-07T07:47:14.726Z,71.24
2022-09-07T07:49:47.654Z,71.25
2022-09-07T07:58:07.776Z,70.67
2022-09-07T08:00:56.964Z,71.80
2022-09-07T08:03:30.480Z,70.89
2022-09-07T08:06:08.200Z,70.54
2022-09-07T08:08:41.500Z,70.63
2022-09-07T08:11:16.972Z,70.15
2022-09-07T08:13:52.583Z,69.69
2022-09-07T08:16:25.546Z,69.51
2022-09-07T08:18:59.044Z,69.38
2022-09-07T08:21:31.832Z,69.16
2022-09-07T08:24:05.089Z,68.50
2022-09-07T08:26:38.285Z,67.49
2022-09-07T08:29:12.582Z,67.21
2022-09-07T08:31:45.389Z,67.31
2022-09-07T08:34:18.543Z,67.34
2022-09-07T08:36:51.474Z,66.44
2022-09-07T08:39:24.495Z,66.00
2022-09-07T08:42:27.736Z,66.71
2022-09-07T08:45:06.779Z,65.40
2022-09-07T08:47:44.646Z,64.31
2022-09-07T08:50:23.472Z,64.35
2022-09-07T08:53:00.881Z,63.00
2022-09-07T08:55:38.227Z,63.61
2022-09-07T08:58:32.284Z,64.02
2022-09-07T09:04:18.760Z,63.35
2022-09-07T09:07:16.653Z,61.71
2022-09-07T09:10:13.979Z,62.57
2022-09-07T09:13:05.384Z,63.38
2022-09-07T09:15:59.580Z,62.75
2022-09-07T09:18:48.971Z,62.72
2022-09-07T09:21:27.096Z,63.05
2022-09-07T09:24:03.580Z,63.75
2022-09-07T09:26:36.852Z,64.56
2022-09-07T09:29:16.745Z,63.74
2022-09-07T09:31:49.685Z,64.25
2022-09-07T09:34:29.472Z,63.82
2022-09-07T09:37:04.329Z,64.48
2022-09-07T09:39:38.199Z,64.19
2022-09-07T09:42:23.586Z,62.46
2022-09-07T09:45:04.248Z,63.86
2022-09-07T09:47:37.176Z,63.58
2022-09-07T09:53:26.808Z,63.28
2022-09-07T09:56:01.418Z,63.85
2022-09-07T10:01:36.471Z,62.24
2022-09-07T10:04:35.101Z,62.27
2022-09-07T10:07:27.435Z,62.13
2022-09-07T10:10:00.869Z,61.69
2022-09-07T10:12:36.131Z,60.41
2022-09-07T10:15:25.680Z,60.30
2022-09-07T10:18:00.021Z,60.59
2022-09-07T10:20:37.856Z,59.49
2022-09-07T10:23:22.570Z,60.47
2022-09-07T10:25:55.509Z,60.02
2022-09-07T10:29:06.499Z,60.57
2022-09-07T10:31:27.840Z,59.81
2022-09-07T10:37:04.844Z,58.35
2022-09-07T10:39:42.894Z,58.25
2022-09-07T10:42:29.016Z,57.60
2022-09-07T10:45:16.038Z,57.19
2022-09-07T10:48:01.698Z,57.65
2022-09-07T10:50:45.560Z,57.79
2022-09-07T10:53:41.730Z,57.44
2022-09-07T10:56:23.208Z,57.65
2022-09-07T10:59:04.865Z,57.51
2022-09-07T11:01:48.906Z,56.79
2022-09-07T11:04:37.185Z,56.90
2022-09-07T11:07:23.442Z,57.07
2022-09-07T11:10:02.508Z,56.72
2022-09-07T11:12:38.780Z,57.23
2022-09-07T11:15:20.101Z,56.75
2022-09-07T11:17:57.174Z,56.67
2022-09-07T11:20:33.841Z,57.38
2022-09-07T11:23:15.896Z,56.63
2022-09-07T11:25:56.657Z,56.86
2022-09-07T11:28:42.581Z,56.83
2022-09-07T11:31:22.160Z,55.98
2022-09-07T11:36:59.611Z,57.24
2022-09-07T11:39:37.988Z,57.11
2022-09-07T11:45:18.165Z,57.06
2022-09-07T11:47:57.029Z,57.18
2022-09-07T11:50:32.927Z,56.63
2022-09-07T11:53:09.828Z,56.79
2022-09-07T11:55:46.850Z,58.03
2022-09-07T11:58:45.279Z,56.22
2022-09-07T12:01:31.940Z,56.64
2022-09-07T12:04:29.451Z,56.08
2022-09-07T12:07:26.673Z,56.78
2022-09-07T12:10:32.708Z,54.39
2022-09-07T12:13:58.382Z,57.59
2022-09-07T12:16:50.427Z,56.55
2022-09-07T12:19:25.732Z,56.68
2022-09-07T12:22:01.058Z,56.31
2022-09-07T12:24:42.640Z,56.73
2022-09-07T12:27:38.815Z,57.02
2022-09-07T12:30:48.054Z,56.43
2022-09-07T12:33:28.809Z,56.87
2022-09-07T12:36:02.543Z,57.47
2022-09-07T12:39:21.037Z,58.21
2022-09-07T12:46:00.810Z,57.42
2022-09-07T12:48:47.836Z,57.99
2022-09-07T12:54:34.383Z,57.75
2022-09-07T12:57:29.371Z,58.72
2022-09-07T13:00:17.475Z,58.02
2022-09-07T13:09:34.134Z,57.95
2022-09-07T13:15:35.411Z,58.73
2022-09-07T13:18:15.288Z,57.70
2022-09-07T13:21:33.122Z,57.08
2022-09-07T13:24:46.543Z,58.22
2022-09-07T13:27:34.717Z,58.55
2022-09-07T13:30:24.122Z,59.02
2022-09-07T13:33:30.418Z,59.24
2022-09-07T13:36:05.114Z,57.04
2022-09-07T13:38:43.831Z,56.96
2022-09-07T13:41:19.932Z,57.10
2022-09-07T13:43:58.720Z,56.63
2022-09-07T13:46:42.175Z,56.74
2022-09-07T13:49:27.424Z,57.25
2022-09-07T13:52:06.536Z,57.45
2022-09-07T13:54:54.943Z,57.11
2022-09-07T13:57:33.590Z,56.04
2022-09-07T14:00:14.338Z,56.12
2022-09-07T14:02:56.546Z,55.74
2022-09-07T14:05:29.985Z,54.61
2022-09-07T14:08:03.529Z,55.08
2022-09-07T14:10:37.952Z,54.53
2022-09-07T14:13:17.359Z,52.84
2022-09-07T14:15:51.945Z,53.21
2022-09-07T14:18:31.488Z,54.39
2022-09-07T14:21:06.257Z,52.69
2022-09-07T14:23:40.016Z,52.78
2022-09-07T14:26:19.225Z,52.39
2022-09-07T14:28:54.011Z,54.14
2022-09-07T14:31:28.660Z,54.00
2022-09-07T14:34:02.238Z,51.96
2022-09-07T14:36:45.437Z,52.89
2022-09-07T14:39:22.158Z,53.34
2022-09-07T14:41:58.005Z,53.02
2022-09-07T14:44:33.405Z,53.25
2022-09-07T14:47:13.288Z,53.23
2022-09-07T14:49:52.176Z,53.80
2022-09-07T14:52:35.746Z,53.98
2022-09-07T14:55:28.363Z,54.32
2022-09-07T14:58:22.988Z,54.33
2022-09-07T15:04:03.308Z,51.49
2022-09-07T15:09:37.076Z,51.38
2022-09-07T15:12:27.005Z,51.81
2022-09-07T15:15:21.807Z,49.46
2022-09-07T15:17:59.042Z,47.72
2022-09-07T15:20:38.955Z,47.03
2022-09-07T15:23:14.029Z,47.38
2022-09-07T15:25:53.783Z,47.54
2022-09-07T15:31:56.734Z,45.15
2022-09-07T15:34:24.593Z,48.03
2022-09-07T15:37:00.178Z,48.05
2022-09-07T15:39:34.560Z,48.30
2022-09-07T15:45:02.023Z,48.58
2022-09-07T15:47:50.625Z,48.10
2022-09-07T15:50:25.056Z,48.78
2022-09-07T15:53:00.624Z,48.57
2022-09-07T15:55:34.565Z,48.69
2022-09-07T15:58:11.949Z,48.97
2022-09-07T16:00:45.276Z,49.11
2022-09-07T16:03:20.024Z,48.61
2022-09-07T16:05:53.479Z,49.25
2022-09-07T16:08:32.843Z,49.25
2022-09-07T16:11:18.670Z,48.76
2022-09-07T16:13:57.354Z,48.58
2022-09-07T16:19:26.468Z,48.30
2022-09-07T16:21:59.695Z,48.38
2022-09-07T16:24:34.404Z,48.09
2022-09-07T16:27:08.332Z,48.18
2022-09-07T16:29:41.581Z,48.56
2022-09-07T16:35:11.326Z,47.00
2022-09-07T16:40:42.632Z,47.79
2022-09-07T16:43:15.451Z,47.32
2022-09-07T16:46:04.461Z,47.80
2022-09-07T16:48:38.108Z,47.28
2022-09-07T16:51:14.179Z,47.17
2022-09-07T16:53:47.157Z,47.54
2022-09-07T16:56:22.211Z,46.77
2022-09-07T16:58:57.410Z,47.25
2022-09-07T17:01:32.379Z,48.40
2022-09-07T17:04:10.716Z,48.76
2022-09-07T17:06:46.025Z,49.41
2022-09-07T17:09:19.240Z,49.84
2022-09-07T17:11:52.163Z,50.56
2022-09-07T17:14:25.188Z,50.64
2022-09-07T17:16:58.681Z,50.69
2022-09-07T17:19:31.761Z,50.34
2022-09-07T17:22:06.293Z,50.63
2022-09-07T17:24:39.469Z,52.12
2022-09-07T17:27:13.371Z,52.98
2022-09-07T17:29:46.267Z,54.65
2022-09-07T17:32:23.884Z,54.46
2022-09-07T17:34:57.186Z,53.54
2022-09-07T17:37:31.584Z,54.14
2022-09-07T17:40:06.347Z,54.57
2022-09-07T17:45:33.994Z,55.36
2022-09-07T17:48:06.913Z,56.36
2022-09-07T17:50:39.849Z,57.20
2022-09-07T17:53:14.424Z,58.77
2022-09-07T17:55:47.290Z,59.60
2022-09-07T17:58:20.216Z,60.08
2022-09-07T18:00:54.490Z,60.37
2022-09-07T18:03:34.309Z,60.41
2022-09-07T18:06:10.870Z,60.50
2022-09-07T18:08:45.335Z,60.97
2022-09-07T18:14:14.730Z,62.06
2022-09-07T18:16:50.366Z,62.89
2022-09-07T18:19:24.345Z,62.76
2022-09-07T18:21:57.291Z,63.93
2022-09-07T18:24:31.655Z,65.29
2022-09-07T18:27:04.901Z,66.19
2022-09-07T18:29:37.801Z,66.73
2022-09-07T18:32:10.767Z,67.61
2022-09-07T18:34:47.027Z,68.08
2022-09-07T18:37:23.353Z,68.62
2022-09-07T18:39:57.710Z,69.86
2022-09-07T18:42:30.711Z,70.08
2022-09-07T18:47:56.473Z,69.16
2022-09-07T18:50:29.285Z,69.57
2022-09-07T18:53:14.675Z,69.79
2022-09-07T18:55:50.878Z,70.56
2022-09-07T18:58:24.430Z,70.62
2022-09-07T19:00:58.381Z,71.16
2022-09-07T19:03:32.716Z,71.44
2022-09-07T19:06:08.586Z,71.90
2022-09-07T19:08:43.012Z,72.05
2022-09-07T19:11:18.852Z,71.83
2022-09-07T19:13:57.098Z,72.08
2022-09-07T19:16:30.093Z,71.88
2022-09-07T19:19:05.530Z,72.44
2022-09-07T19:21:40.102Z,72.30
2022-09-07T19:24:15.715Z,72.12
2022-09-07T19:26:50.834Z,72.43
2022-09-07T19:29:23.707Z,73.12
2022-09-07T19:32:05.558Z,73.12
2022-09-07T19:34:40.729Z,74.04
2022-09-07T19:37:14.575Z,74.40
2022-09-07T19:39:49.329Z,74.63
2022-09-07T19:42:24.429Z,74.72
2022-09-07T19:44:57.313Z,74.83
2022-09-07T19:47:30.384Z,74.98
2022-09-07T19:50:06.048Z,74.94
2022-09-07T19:52:39.047Z,75.28
2022-09-07T19:55:14.943Z,75.55
2022-09-07T19:57:51.337Z,75.25
2022-09-07T20:00:25.181Z,75.49
2022-09-07T20:02:58.322Z,75.51
2022-09-07T20:05:31.294Z,75.76
2022-09-07T20:08:04.566Z,76.03
2022-09-07T20:10:37.533Z,75.95
2022-09-07T20:13:11.967Z,75.98
2022-09-07T20:15:44.795Z,76.24
2022-09-07T20:18:17.748Z,76.76
2022-09-07T20:20:51.319Z,77.17
2022-09-07T20:23:24.694Z,76.86
2022-09-07T20:25:58.524Z,76.53
2022-09-07T20:28:33.889Z,76.95
2022-09-07T20:31:08.297Z,76.68
2022-09-07T20:33:41.906Z,76.66
2022-09-07T20:36:16.261Z,76.97
2022-09-07T20:38:51.217Z,77.38
2022-09-07T20:41:25.528Z,77.79
2022-09-07T20:44:01.865Z,78.00
2022-09-07T20:46:34.811Z,78.07
2022-09-07T20:49:07.880Z,78.25
2022-09-07T20:51:41.056Z,78.23
2022-09-07T20:54:14.128Z,78.08
2022-09-07T20:56:47.224Z,77.80
2022-09-07T20:59:22.067Z,77.71
2022-09-07T21:01:55.003Z,77.57
2022-09-07T21:04:28.364Z,77.32
2022-09-07T21:07:02.005Z,77.26
2022-09-07T21:09:34.837Z,77.41
2022-09-07T21:12:07.932Z,77.90
2022-09-07T21:14:42.254Z,78.08
2022-09-07T21:17:15.176Z,78.22
2022-09-07T21:19:50.031Z,78.14
2022-09-07T21:22:23.016Z,78.51
2022-09-07T21:24:56.012Z,78.58
2022-09-07T21:27:28.964Z,78.52
2022-09-07T21:30:03.507Z,78.29
2022-09-07T21:32:36.421Z,78.64
2022-09-07T21:35:10.862Z,78.68
2022-09-07T21:37:45.277Z,79.21
2022-09-07T21:40:18.594Z,78.97
2022-09-07T21:42:53.566Z,79.28
2022-09-07T21:45:28.302Z,79.30
2022-09-07T21:48:01.174Z,79.71
2022-09-07T21:50:34.367Z,79.71
2022-09-07T21:53:07.225Z,79.83
2022-09-07T21:55:40.113Z,80.01
2022-09-07T21:58:12.931Z,80.20
2022-09-07T22:00:47.647Z,80.27
2022-09-07T22:03:21.247Z,80.37
2022-09-07T22:05:54.338Z,80.20
2022-09-07T22:08:27.149Z,80.04
2022-09-07T22:11:05.681Z,80.18
2022-09-07T22:13:39.435Z,80.16
2022-09-07T22:16:14.400Z,80.36
2022-09-07T22:18:47.520Z,80.37
2022-09-07T22:21:24.088Z,80.21
2022-09-07T22:23:59.144Z,80.40
2022-09-07T22:26:33.895Z,80.54
2022-09-07T22:29:07.528Z,80.45
2022-09-07T22:31:42.317Z,80.50
2022-09-07T22:34:15.294Z,80.29
2022-09-07T22:36:48.285Z,79.69
2022-09-07T22:39:21.315Z,79.60
2022-09-07T22:41:54.419Z,79.55
2022-09-07T22:44:27.618Z,79.64
2022-09-07T22:47:02.129Z,79.63
2022-09-07T22:49:35.018Z,79.55
2022-09-07T22:52:08.076Z,79.50
2022-09-07T22:54:40.917Z,79.92
2022-09-07T22:57:14.269Z,80.25
2022-09-07T22:59:47.200Z,80.55
2022-09-07T23:02:21.404Z,80.84
2022-09-07T23:04:54.299Z,81.04
2022-09-07T23:07:27.204Z,81.14
2022-09-07T23:10:00.889Z,81.16
2022-09-07T23:12:33.717Z,81.09
2022-09-07T23:15:07.110Z,81.24
2022-09-07T23:17:41.445Z,81.42
2022-09-07T23:20:14.221Z,81.48
2022-09-07T23:22:47.220Z,81.32
2022-09-07T23:25:20.173Z,81.21
2022-09-07T23:27:53.568Z,81.36
2022-09-07T23:30:26.483Z,81.28
2022-09-07T23:33:00.815Z,81.40
2022-09-07T23:35:33.663Z,81.46
2022-09-07T23:38:06.567Z,81.43
2022-09-07T23:40:39.473Z,81.54
2022-09-07T23:43:13.179Z,81.59
2022-09-07T23:45:45.990Z,81.68
2022-09-07T23:48:23.133Z,81.76
2022-09-07T23:50:56.080Z,81.64
2022-09-07T23:53:29.122Z,81.67
2022-09-07T23:56:02.263Z,81.84
2022-09-07T23:58:35.135Z,81.90
